West Andover, Ohio
Current Conditions -  °F | °C
As of 11:53 PM on Monday 26 Jan 2015 (Local Time) from KHZY Reporting Station
Light Snow Light Snow  
Wind Chill: 12°   Ceiling: 1000
Heat Index: 20°   Visibility: 7mi
Dew Point: 15°   Wind: 6mph
Humidity: 81%   Direction: 10°N
Pressure: 29.9"   Gusts: NA
Location:  41.6317°N, 80.577°W
Report Text: KHZY 270453Z AUTO 01005KT 7SM -SN BKN010 OVC014 M07/M09 A2990 RMK AO2 SLP138 P0000 T10671094 410441089
Loading
Personal Weather Stations






























Interactive Weather Map New forecast layout! Learn more

10-Day Weather Forecast

Advertisements
Track Severe Weather on mobile